sensor_id;sensor_type;location;lat;lon;timestamp;P1;durP1;ratioP1;P2;durP2;ratioP2
70320;SDS011;61127;55.826;37.046;2023-02-28T00:00:33;8.00;;;2.90;;
70320;SDS011;61127;55.826;37.046;2023-02-28T00:02:58;7.07;;;3.05;;
70320;SDS011;61127;55.826;37.046;2023-02-28T00:05:26;8.60;;;3.50;;
70320;SDS011;61127;55.826;37.046;2023-02-28T00:07:51;9.25;;;4.05;;
70320;SDS011;61127;55.826;37.046;2023-02-28T00:10:18;8.00;;;3.30;;
70320;SDS011;61127;55.826;37.046;2023-02-28T00:12:46;7.82;;;3.03;;
70320;SDS011;61127;55.826;37.046;2023-02-28T00:15:13;7.43;;;3.25;;
70320;SDS011;61127;55.826;37.046;2023-02-28T00:17:39;10.68;;;3.35;;
70320;SDS011;61127;55.826;37.046;2023-02-28T00:20:05;7.10;;;2.77;;
70320;SDS011;61127;55.826;37.046;2023-02-28T00:22:35;9.15;;;3.90;;
70320;SDS011;61127;55.826;37.046;2023-02-28T00:25:03;6.97;;;3.30;;
70320;SDS011;61127;55.826;37.046;2023-02-28T00:27:29;9.38;;;4.22;;
70320;SDS011;61127;55.826;37.046;2023-02-28T00:29:55;7.63;;;3.03;;
70320;SDS011;61127;55.826;37.046;2023-02-28T00:32:20;7.47;;;3.40;;
70320;SDS011;61127;55.826;37.046;2023-02-28T00:34:47;7.93;;;3.20;;
70320;SDS011;61127;55.826;37.046;2023-02-28T00:37:13;7.78;;;3.40;;
70320;SDS011;61127;55.826;37.046;2023-02-28T00:39:39;7.77;;;2.73;;
70320;SDS011;61127;55.826;37.046;2023-02-28T00:42:05;9.45;;;3.33;;
70320;SDS011;61127;55.826;37.046;2023-02-28T00:44:31;9.25;;;3.40;;
70320;SDS011;61127;55.826;37.046;2023-02-28T00:46:57;7.37;;;3.17;;
70320;SDS011;61127;55.826;37.046;2023-02-28T00:49:25;10.02;;;4.60;;
70320;SDS011;61127;55.826;37.046;2023-02-28T00:51:51;8.40;;;3.70;;
70320;SDS011;61127;55.826;37.046;2023-02-28T00:54:18;8.05;;;3.22;;
70320;SDS011;61127;55.826;37.046;2023-02-28T00:56:47;7.27;;;2.70;;
70320;SDS011;61127;55.826;37.046;2023-02-28T00:59:14;8.07;;;3.05;;
70320;SDS011;61127;55.826;37.046;2023-02-28T01:01:46;8.27;;;3.10;;
70320;SDS011;61127;55.826;37.046;2023-02-28T01:04:12;7.88;;;2.92;;
70320;SDS011;61127;55.826;37.046;2023-02-28T01:06:38;5.90;;;2.60;;
70320;SDS011;61127;55.826;37.046;2023-02-28T01:09:04;7.70;;;3.50;;
70320;SDS011;61127;55.826;37.046;2023-02-28T01:11:30;8.20;;;3.10;;
70320;SDS011;61127;55.826;37.046;2023-02-28T01:13:56;8.20;;;3.30;;
70320;SDS011;61127;55.826;37.046;2023-02-28T01:16:21;10.02;;;4.28;;
70320;SDS011;61127;55.826;37.046;2023-02-28T01:18:47;8.53;;;3.60;;
70320;SDS011;61127;55.826;37.046;2023-02-28T01:21:14;9.57;;;3.45;;
70320;SDS011;61127;55.826;37.046;2023-02-28T01:23:40;6.85;;;3.35;;
70320;SDS011;61127;55.826;37.046;2023-02-28T01:26:07;9.80;;;3.67;;
70320;SDS011;61127;55.826;37.046;2023-02-28T01:28:33;9.90;;;3.72;;
70320;SDS011;61127;55.826;37.046;2023-02-28T01:30:59;9.13;;;2.97;;
70320;SDS011;61127;55.826;37.046;2023-02-28T01:33:25;7.30;;;3.55;;
70320;SDS011;61127;55.826;37.046;2023-02-28T01:36:00;8.60;;;3.90;;
70320;SDS011;61127;55.826;37.046;2023-02-28T01:38:28;7.13;;;2.90;;
70320;SDS011;61127;55.826;37.046;2023-02-28T01:40:53;6.50;;;3.05;;
70320;SDS011;61127;55.826;37.046;2023-02-28T01:43:29;7.47;;;3.20;;
70320;SDS011;61127;55.826;37.046;2023-02-28T01:46:01;7.57;;;2.83;;
70320;SDS011;61127;55.826;37.046;2023-02-28T01:48:28;10.55;;;3.30;;
70320;SDS011;61127;55.826;37.046;2023-02-28T01:50:55;6.57;;;2.73;;
70320;SDS011;61127;55.826;37.046;2023-02-28T01:53:24;8.65;;;3.00;;
70320;SDS011;61127;55.826;37.046;2023-02-28T01:55:51;8.77;;;3.40;;
70320;SDS011;61127;55.826;37.046;2023-02-28T01:58:20;7.70;;;3.17;;
70320;SDS011;61127;55.826;37.046;2023-02-28T02:00:46;8.13;;;3.33;;
70320;SDS011;61127;55.826;37.046;2023-02-28T02:03:13;10.30;;;3.70;;
70320;SDS011;61127;55.826;37.046;2023-02-28T02:05:41;7.25;;;2.88;;
70320;SDS011;61127;55.826;37.046;2023-02-28T02:11:07;8.87;;;3.57;;
70320;SDS011;61127;55.826;37.046;2023-02-28T02:27:38;9.65;;;3.85;;
70320;SDS011;61127;55.826;37.046;2023-02-28T02:35:21;10.10;;;4.05;;
70320;SDS011;61127;55.826;37.046;2023-02-28T02:40:27;8.60;;;3.03;;
70320;SDS011;61127;55.826;37.046;2023-02-28T02:45:25;9.83;;;3.47;;
70320;SDS011;61127;55.826;37.046;2023-02-28T02:47:53;8.93;;;3.47;;
70320;SDS011;61127;55.826;37.046;2023-02-28T02:50:41;8.73;;;3.10;;
70320;SDS011;61127;55.826;37.046;2023-02-28T02:53:08;9.05;;;3.55;;
70320;SDS011;61127;55.826;37.046;2023-02-28T02:55:49;8.37;;;2.83;;
70320;SDS011;61127;55.826;37.046;2023-02-28T02:58:21;7.40;;;2.85;;
70320;SDS011;61127;55.826;37.046;2023-02-28T03:00:48;7.82;;;2.95;;
70320;SDS011;61127;55.826;37.046;2023-02-28T03:03:16;5.97;;;2.42;;
70320;SDS011;61127;55.826;37.046;2023-02-28T03:05:48;7.70;;;2.97;;
70320;SDS011;61127;55.826;37.046;2023-02-28T03:08:14;7.90;;;2.90;;
70320;SDS011;61127;55.826;37.046;2023-02-28T03:10:41;10.88;;;3.33;;
70320;SDS011;61127;55.826;37.046;2023-02-28T03:13:18;8.32;;;3.88;;
70320;SDS011;61127;55.826;37.046;2023-02-28T03:18:19;7.20;;;3.13;;
70320;SDS011;61127;55.826;37.046;2023-02-28T03:20:56;9.68;;;3.88;;
70320;SDS011;61127;55.826;37.046;2023-02-28T03:23:31;9.63;;;4.30;;
70320;SDS011;61127;55.826;37.046;2023-02-28T03:26:06;7.25;;;2.92;;
70320;SDS011;61127;55.826;37.046;2023-02-28T03:33:36;8.63;;;3.85;;
70320;SDS011;61127;55.826;37.046;2023-02-28T03:36:05;7.40;;;3.75;;
70320;SDS011;61127;55.826;37.046;2023-02-28T03:38:33;8.43;;;3.20;;
70320;SDS011;61127;55.826;37.046;2023-02-28T03:41:05;5.53;;;2.38;;
70320;SDS011;61127;55.826;37.046;2023-02-28T03:43:33;9.40;;;3.10;;
70320;SDS011;61127;55.826;37.046;2023-02-28T03:46:01;8.18;;;3.08;;
70320;SDS011;61127;55.826;37.046;2023-02-28T03:48:41;7.68;;;2.80;;
70320;SDS011;61127;55.826;37.046;2023-02-28T03:51:08;7.97;;;3.03;;
70320;SDS011;61127;55.826;37.046;2023-02-28T03:53:36;8.32;;;3.15;;
70320;SDS011;61127;55.826;37.046;2023-02-28T03:56:17;8.17;;;3.33;;
70320;SDS011;61127;55.826;37.046;2023-02-28T04:01:53;10.43;;;3.20;;
70320;SDS011;61127;55.826;37.046;2023-02-28T04:03:54;8.70;;;3.47;;
70320;SDS011;61127;55.826;37.046;2023-02-28T04:06:21;8.80;;;3.33;;
70320;SDS011;61127;55.826;37.046;2023-02-28T04:08:48;5.80;;;2.20;;
70320;SDS011;61127;55.826;37.046;2023-02-28T04:13:39;8.98;;;3.80;;
70320;SDS011;61127;55.826;37.046;2023-02-28T04:16:09;10.23;;;3.47;;
70320;SDS011;61127;55.826;37.046;2023-02-28T04:18:38;6.65;;;2.80;;
70320;SDS011;61127;55.826;37.046;2023-02-28T04:21:04;7.93;;;3.50;;
70320;SDS011;61127;55.826;37.046;2023-02-28T04:23:30;7.95;;;3.03;;
70320;SDS011;61127;55.826;37.046;2023-02-28T04:25:56;5.55;;;2.40;;
70320;SDS011;61127;55.826;37.046;2023-02-28T04:28:21;7.13;;;2.90;;
70320;SDS011;61127;55.826;37.046;2023-02-28T04:30:46;8.32;;;2.85;;
70320;SDS011;61127;55.826;37.046;2023-02-28T04:33:12;8.23;;;3.78;;
70320;SDS011;61127;55.826;37.046;2023-02-28T04:35:39;7.90;;;3.87;;
70320;SDS011;61127;55.826;37.046;2023-02-28T04:38:04;8.13;;;3.47;;
70320;SDS011;61127;55.826;37.046;2023-02-28T04:40:30;7.03;;;2.47;;
70320;SDS011;61127;55.826;37.046;2023-02-28T04:42:55;8.47;;;2.50;;
70320;SDS011;61127;55.826;37.046;2023-02-28T04:45:21;6.75;;;3.20;;
70320;SDS011;61127;55.826;37.046;2023-02-28T04:47:46;8.30;;;2.90;;
70320;SDS011;61127;55.826;37.046;2023-02-28T04:50:12;6.43;;;2.30;;
70320;SDS011;61127;55.826;37.046;2023-02-28T04:52:37;6.57;;;2.60;;
70320;SDS011;61127;55.826;37.046;2023-02-28T04:55:04;6.05;;;2.50;;
70320;SDS011;61127;55.826;37.046;2023-02-28T04:57:30;6.03;;;2.58;;
70320;SDS011;61127;55.826;37.046;2023-02-28T04:59:56;6.53;;;2.60;;
70320;SDS011;61127;55.826;37.046;2023-02-28T05:02:21;6.20;;;2.27;;
70320;SDS011;61127;55.826;37.046;2023-02-28T05:04:49;8.85;;;2.97;;
70320;SDS011;61127;55.826;37.046;2023-02-28T05:07:15;5.47;;;2.15;;
70320;SDS011;61127;55.826;37.046;2023-02-28T05:09:41;8.40;;;3.10;;
70320;SDS011;61127;55.826;37.046;2023-02-28T05:12:06;7.13;;;3.67;;
70320;SDS011;61127;55.826;37.046;2023-02-28T05:14:32;7.38;;;2.90;;
70320;SDS011;61127;55.826;37.046;2023-02-28T05:16:57;5.60;;;2.37;;
70320;SDS011;61127;55.826;37.046;2023-02-28T05:19:23;6.37;;;2.60;;
70320;SDS011;61127;55.826;37.046;2023-02-28T05:21:53;7.57;;;3.00;;
70320;SDS011;61127;55.826;37.046;2023-02-28T05:24:19;7.67;;;2.67;;
70320;SDS011;61127;55.826;37.046;2023-02-28T05:26:49;4.70;;;1.85;;
70320;SDS011;61127;55.826;37.046;2023-02-28T05:29:16;6.85;;;2.08;;
70320;SDS011;61127;55.826;37.046;2023-02-28T05:31:41;7.10;;;2.50;;
70320;SDS011;61127;55.826;37.046;2023-02-28T05:34:07;8.70;;;2.70;;
70320;SDS011;61127;55.826;37.046;2023-02-28T05:36:33;7.43;;;2.53;;
70320;SDS011;61127;55.826;37.046;2023-02-28T05:38:58;5.63;;;2.30;;
70320;SDS011;61127;55.826;37.046;2023-02-28T05:41:24;6.15;;;2.78;;
70320;SDS011;61127;55.826;37.046;2023-02-28T05:43:51;6.82;;;2.45;;
70320;SDS011;61127;55.826;37.046;2023-02-28T05:46:17;6.90;;;3.03;;
70320;SDS011;61127;55.826;37.046;2023-02-28T05:48:45;5.63;;;2.20;;
70320;SDS011;61127;55.826;37.046;2023-02-28T05:51:11;6.20;;;2.07;;
70320;SDS011;61127;55.826;37.046;2023-02-28T05:53:37;4.35;;;1.77;;
70320;SDS011;61127;55.826;37.046;2023-02-28T05:56:05;5.00;;;2.20;;
70320;SDS011;61127;55.826;37.046;2023-02-28T05:58:30;6.03;;;2.30;;
70320;SDS011;61127;55.826;37.046;2023-02-28T06:00:56;5.33;;;2.23;;
70320;SDS011;61127;55.826;37.046;2023-02-28T06:03:23;5.10;;;2.65;;
70320;SDS011;61127;55.826;37.046;2023-02-28T06:05:48;5.13;;;2.63;;
70320;SDS011;61127;55.826;37.046;2023-02-28T06:08:14;6.07;;;2.67;;
70320;SDS011;61127;55.826;37.046;2023-02-28T06:10:39;4.03;;;2.00;;
70320;SDS011;61127;55.826;37.046;2023-02-28T06:13:05;6.30;;;2.63;;
70320;SDS011;61127;55.826;37.046;2023-02-28T06:15:32;5.57;;;2.50;;
70320;SDS011;61127;55.826;37.046;2023-02-28T06:17:57;4.82;;;1.73;;
70320;SDS011;61127;55.826;37.046;2023-02-28T06:20:23;6.67;;;2.30;;
70320;SDS011;61127;55.826;37.046;2023-02-28T06:22:49;5.18;;;2.22;;
70320;SDS011;61127;55.826;37.046;2023-02-28T06:25:17;5.20;;;2.50;;
70320;SDS011;61127;55.826;37.046;2023-02-28T06:27:43;5.00;;;1.95;;
70320;SDS011;61127;55.826;37.046;2023-02-28T06:30:09;3.67;;;1.80;;
70320;SDS011;61127;55.826;37.046;2023-02-28T06:32:35;4.68;;;2.17;;
70320;SDS011;61127;55.826;37.046;2023-02-28T06:35:02;4.57;;;2.20;;
70320;SDS011;61127;55.826;37.046;2023-02-28T06:37:29;6.03;;;2.28;;
70320;SDS011;61127;55.826;37.046;2023-02-28T06:39:55;3.88;;;1.92;;
70320;SDS011;61127;55.826;37.046;2023-02-28T06:42:24;5.63;;;2.10;;
70320;SDS011;61127;55.826;37.046;2023-02-28T06:44:55;5.00;;;2.00;;
70320;SDS011;61127;55.826;37.046;2023-02-28T06:47:20;4.35;;;1.38;;
70320;SDS011;61127;55.826;37.046;2023-02-28T06:49:46;4.57;;;1.75;;
70320;SDS011;61127;55.826;37.046;2023-02-28T06:52:12;7.15;;;2.30;;
70320;SDS011;61127;55.826;37.046;2023-02-28T06:54:38;7.07;;;3.07;;
70320;SDS011;61127;55.826;37.046;2023-02-28T06:57:04;5.85;;;2.80;;
70320;SDS011;61127;55.826;37.046;2023-02-28T06:59:30;6.55;;;1.95;;
70320;SDS011;61127;55.826;37.046;2023-02-28T07:01:55;7.47;;;2.30;;
70320;SDS011;61127;55.826;37.046;2023-02-28T07:04:21;4.97;;;2.60;;
70320;SDS011;61127;55.826;37.046;2023-02-28T07:06:49;5.32;;;2.72;;
70320;SDS011;61127;55.826;37.046;2023-02-28T07:09:14;7.15;;;2.70;;
70320;SDS011;61127;55.826;37.046;2023-02-28T07:11:40;5.53;;;2.20;;
70320;SDS011;61127;55.826;37.046;2023-02-28T07:14:06;7.38;;;2.55;;
70320;SDS011;61127;55.826;37.046;2023-02-28T07:16:32;5.22;;;2.55;;
70320;SDS011;61127;55.826;37.046;2023-02-28T07:18:57;4.32;;;2.20;;
70320;SDS011;61127;55.826;37.046;2023-02-28T07:21:23;5.90;;;2.20;;
70320;SDS011;61127;55.826;37.046;2023-02-28T07:23:49;5.20;;;2.00;;
70320;SDS011;61127;55.826;37.046;2023-02-28T07:26:20;3.70;;;1.55;;
70320;SDS011;61127;55.826;37.046;2023-02-28T07:28:46;7.40;;;2.07;;
70320;SDS011;61127;55.826;37.046;2023-02-28T07:31:12;7.20;;;1.98;;
70320;SDS011;61127;55.826;37.046;2023-02-28T07:33:42;6.13;;;2.00;;
70320;SDS011;61127;55.826;37.046;2023-02-28T07:36:10;5.88;;;2.03;;
70320;SDS011;61127;55.826;37.046;2023-02-28T07:38:41;3.93;;;1.53;;
70320;SDS011;61127;55.826;37.046;2023-02-28T07:41:06;6.05;;;2.47;;
70320;SDS011;61127;55.826;37.046;2023-02-28T07:43:33;5.50;;;2.42;;
70320;SDS011;61127;55.826;37.046;2023-02-28T07:46:06;6.70;;;2.08;;
70320;SDS011;61127;55.826;37.046;2023-02-28T07:48:32;4.95;;;1.95;;
70320;SDS011;61127;55.826;37.046;2023-02-28T07:50:58;4.13;;;1.67;;
70320;SDS011;61127;55.826;37.046;2023-02-28T07:53:23;5.87;;;2.10;;
70320;SDS011;61127;55.826;37.046;2023-02-28T07:55:50;7.30;;;2.25;;
70320;SDS011;61127;55.826;37.046;2023-02-28T07:58:16;4.20;;;1.85;;
70320;SDS011;61127;55.826;37.046;2023-02-28T08:00:41;5.40;;;2.10;;
70320;SDS011;61127;55.826;37.046;2023-02-28T08:03:10;7.40;;;2.40;;
70320;SDS011;61127;55.826;37.046;2023-02-28T08:05:40;4.70;;;2.10;;
70320;SDS011;61127;55.826;37.046;2023-02-28T08:08:06;5.00;;;1.95;;
70320;SDS011;61127;55.826;37.046;2023-02-28T08:10:32;5.72;;;2.20;;
70320;SDS011;61127;55.826;37.046;2023-02-28T08:12:58;4.70;;;2.20;;
70320;SDS011;61127;55.826;37.046;2023-02-28T08:15:25;4.10;;;2.00;;
70320;SDS011;61127;55.826;37.046;2023-02-28T08:17:50;4.17;;;1.90;;
70320;SDS011;61127;55.826;37.046;2023-02-28T08:20:16;4.90;;;1.55;;
70320;SDS011;61127;55.826;37.046;2023-02-28T08:22:41;4.27;;;1.87;;
70320;SDS011;61127;55.826;37.046;2023-02-28T08:25:08;5.37;;;2.07;;
70320;SDS011;61127;55.826;37.046;2023-02-28T08:27:35;5.45;;;2.30;;
70320;SDS011;61127;55.826;37.046;2023-02-28T08:30:01;6.90;;;2.67;;
70320;SDS011;61127;55.826;37.046;2023-02-28T08:32:29;5.38;;;2.22;;
70320;SDS011;61127;55.826;37.046;2023-02-28T08:37:24;5.65;;;2.50;;
70320;SDS011;61127;55.826;37.046;2023-02-28T08:39:50;4.82;;;2.00;;
70320;SDS011;61127;55.826;37.046;2023-02-28T08:42:16;4.97;;;2.13;;
70320;SDS011;61127;55.826;37.046;2023-02-28T08:44:43;5.23;;;2.13;;
70320;SDS011;61127;55.826;37.046;2023-02-28T08:47:09;6.18;;;2.30;;
70320;SDS011;61127;55.826;37.046;2023-02-28T08:49:34;4.80;;;2.10;;
70320;SDS011;61127;55.826;37.046;2023-02-28T08:52:00;4.20;;;1.83;;
70320;SDS011;61127;55.826;37.046;2023-02-28T08:54:26;3.37;;;1.50;;
70320;SDS011;61127;55.826;37.046;2023-02-28T08:56:52;4.35;;;2.10;;
70320;SDS011;61127;55.826;37.046;2023-02-28T08:59:18;5.45;;;2.33;;
70320;SDS011;61127;55.826;37.046;2023-02-28T09:01:43;4.03;;;2.00;;
70320;SDS011;61127;55.826;37.046;2023-02-28T09:04:09;6.77;;;1.93;;
70320;SDS011;61127;55.826;37.046;2023-02-28T09:06:37;4.03;;;1.58;;
70320;SDS011;61127;55.826;37.046;2023-02-28T09:09:02;7.10;;;1.98;;
70320;SDS011;61127;55.826;37.046;2023-02-28T09:11:29;6.13;;;1.77;;
70320;SDS011;61127;55.826;37.046;2023-02-28T09:13:55;5.78;;;1.80;;
70320;SDS011;61127;55.826;37.046;2023-02-28T09:16:21;4.10;;;1.87;;
70320;SDS011;61127;55.826;37.046;2023-02-28T09:18:47;4.85;;;1.83;;
70320;SDS011;61127;55.826;37.046;2023-02-28T09:21:14;5.88;;;1.67;;
70320;SDS011;61127;55.826;37.046;2023-02-28T09:23:41;7.10;;;1.90;;
70320;SDS011;61127;55.826;37.046;2023-02-28T09:26:12;4.70;;;2.00;;
70320;SDS011;61127;55.826;37.046;2023-02-28T09:28:38;4.88;;;2.00;;
70320;SDS011;61127;55.826;37.046;2023-02-28T09:31:04;3.80;;;1.60;;
70320;SDS011;61127;55.826;37.046;2023-02-28T09:33:30;4.00;;;1.77;;
70320;SDS011;61127;55.826;37.046;2023-02-28T09:35:58;4.15;;;1.73;;
70320;SDS011;61127;55.826;37.046;2023-02-28T09:38:27;4.13;;;1.90;;
70320;SDS011;61127;55.826;37.046;2023-02-28T09:40:54;4.03;;;2.30;;
70320;SDS011;61127;55.826;37.046;2023-02-28T09:43:22;5.88;;;2.05;;
70320;SDS011;61127;55.826;37.046;2023-02-28T09:46:00;4.10;;;2.05;;
70320;SDS011;61127;55.826;37.046;2023-02-28T09:48:28;4.90;;;1.73;;
70320;SDS011;61127;55.826;37.046;2023-02-28T09:51:04;4.80;;;1.70;;
70320;SDS011;61127;55.826;37.046;2023-02-28T09:53:31;3.80;;;1.53;;
70320;SDS011;61127;55.826;37.046;2023-02-28T10:00:58;5.23;;;1.90;;
70320;SDS011;61127;55.826;37.046;2023-02-28T10:03:27;4.47;;;1.50;;
70320;SDS011;61127;55.826;37.046;2023-02-28T10:08:30;6.07;;;2.17;;
70320;SDS011;61127;55.826;37.046;2023-02-28T10:10:58;3.53;;;1.80;;
70320;SDS011;61127;55.826;37.046;2023-02-28T10:13:36;6.75;;;1.90;;
70320;SDS011;61127;55.826;37.046;2023-02-28T10:16:16;7.28;;;1.92;;
70320;SDS011;61127;55.826;37.046;2023-02-28T10:19:05;4.53;;;1.73;;
70320;SDS011;61127;55.826;37.046;2023-02-28T10:23:56;5.17;;;1.90;;
70320;SDS011;61127;55.826;37.046;2023-02-28T10:26:25;4.82;;;2.53;;
70320;SDS011;61127;55.826;37.046;2023-02-28T10:28:51;5.57;;;2.00;;
70320;SDS011;61127;55.826;37.046;2023-02-28T10:31:18;4.75;;;2.10;;
70320;SDS011;61127;55.826;37.046;2023-02-28T10:33:44;5.13;;;2.53;;
70320;SDS011;61127;55.826;37.046;2023-02-28T10:36:12;5.35;;;2.40;;
70320;SDS011;61127;55.826;37.046;2023-02-28T10:38:39;4.93;;;1.83;;
70320;SDS011;61127;55.826;37.046;2023-02-28T10:43:30;4.87;;;2.40;;
70320;SDS011;61127;55.826;37.046;2023-02-28T10:53:16;4.85;;;2.30;;
70320;SDS011;61127;55.826;37.046;2023-02-28T10:55:43;5.88;;;2.15;;
70320;SDS011;61127;55.826;37.046;2023-02-28T11:01:04;4.60;;;2.10;;
70320;SDS011;61127;55.826;37.046;2023-02-28T11:05:56;4.97;;;2.03;;
70320;SDS011;61127;55.826;37.046;2023-02-28T11:08:22;6.35;;;2.22;;
70320;SDS011;61127;55.826;37.046;2023-02-28T11:10:58;5.22;;;2.15;;
70320;SDS011;61127;55.826;37.046;2023-02-28T11:13:26;5.37;;;2.10;;
70320;SDS011;61127;55.826;37.046;2023-02-28T11:15:54;7.95;;;2.20;;
70320;SDS011;61127;55.826;37.046;2023-02-28T11:20:50;4.63;;;2.00;;
70320;SDS011;61127;55.826;37.046;2023-02-28T11:23:16;6.00;;;2.30;;
70320;SDS011;61127;55.826;37.046;2023-02-28T11:25:51;5.38;;;2.33;;
70320;SDS011;61127;55.826;37.046;2023-02-28T11:28:26;5.72;;;2.00;;
70320;SDS011;61127;55.826;37.046;2023-02-28T11:36:04;6.93;;;2.10;;
70320;SDS011;61127;55.826;37.046;2023-02-28T11:38:30;4.78;;;2.10;;
70320;SDS011;61127;55.826;37.046;2023-02-28T11:41:02;6.55;;;2.00;;
70320;SDS011;61127;55.826;37.046;2023-02-28T11:46:10;5.35;;;2.30;;
70320;SDS011;61127;55.826;37.046;2023-02-28T11:59:03;7.07;;;2.60;;
70320;SDS011;61127;55.826;37.046;2023-02-28T12:12:07;6.13;;;2.90;;
70320;SDS011;61127;55.826;37.046;2023-02-28T12:25:16;6.40;;;2.70;;
70320;SDS011;61127;55.826;37.046;2023-02-28T12:27:46;7.15;;;3.40;;
70320;SDS011;61127;55.826;37.046;2023-02-28T12:30:13;5.35;;;2.55;;
70320;SDS011;61127;55.826;37.046;2023-02-28T12:32:42;7.20;;;2.60;;
70320;SDS011;61127;55.826;37.046;2023-02-28T12:35:22;5.60;;;2.63;;
70320;SDS011;61127;55.826;37.046;2023-02-28T12:38:01;6.40;;;2.40;;
70320;SDS011;61127;55.826;37.046;2023-02-28T12:40:45;6.55;;;3.08;;
70320;SDS011;61127;55.826;37.046;2023-02-28T12:43:12;6.80;;;3.00;;
70320;SDS011;61127;55.826;37.046;2023-02-28T12:49:01;4.20;;;2.10;;
70320;SDS011;61127;55.826;37.046;2023-02-28T12:50:59;5.13;;;2.67;;
70320;SDS011;61127;55.826;37.046;2023-02-28T12:58:41;4.65;;;2.30;;
70320;SDS011;61127;55.826;37.046;2023-02-28T13:09:02;6.00;;;2.50;;
70320;SDS011;61127;55.826;37.046;2023-02-28T13:14:02;5.00;;;2.55;;
70320;SDS011;61127;55.826;37.046;2023-02-28T13:16:46;4.97;;;2.30;;
70320;SDS011;61127;55.826;37.046;2023-02-28T13:19:16;4.95;;;2.10;;
70320;SDS011;61127;55.826;37.046;2023-02-28T13:21:43;3.92;;;2.05;;
70320;SDS011;61127;55.826;37.046;2023-02-28T13:24:10;4.43;;;2.13;;
70320;SDS011;61127;55.826;37.046;2023-02-28T13:29:03;3.73;;;2.20;;
70320;SDS011;61127;55.826;37.046;2023-02-28T13:34:31;4.40;;;2.03;;
70320;SDS011;61127;55.826;37.046;2023-02-28T13:47:28;3.08;;;1.60;;
70320;SDS011;61127;55.826;37.046;2023-02-28T13:49:54;5.55;;;2.28;;
70320;SDS011;61127;55.826;37.046;2023-02-28T13:52:20;5.67;;;2.10;;
70320;SDS011;61127;55.826;37.046;2023-02-28T14:05:00;4.20;;;2.10;;
70320;SDS011;61127;55.826;37.046;2023-02-28T14:07:48;4.22;;;1.85;;
70320;SDS011;61127;55.826;37.046;2023-02-28T14:10:22;4.75;;;2.28;;
70320;SDS011;61127;55.826;37.046;2023-02-28T14:12:56;5.13;;;2.30;;
70320;SDS011;61127;55.826;37.046;2023-02-28T14:20:48;5.43;;;2.50;;
70320;SDS011;61127;55.826;37.046;2023-02-28T14:28:20;5.07;;;2.60;;
70320;SDS011;61127;55.826;37.046;2023-02-28T14:38:25;6.65;;;2.47;;
70320;SDS011;61127;55.826;37.046;2023-02-28T14:40:54;4.00;;;2.23;;
70320;SDS011;61127;55.826;37.046;2023-02-28T14:43:21;5.00;;;2.47;;
70320;SDS011;61127;55.826;37.046;2023-02-28T14:45:58;5.95;;;2.28;;
70320;SDS011;61127;55.826;37.046;2023-02-28T14:48:39;5.75;;;2.40;;
70320;SDS011;61127;55.826;37.046;2023-02-28T14:51:17;6.13;;;2.30;;
70320;SDS011;61127;55.826;37.046;2023-02-28T14:53:57;4.83;;;2.43;;
70320;SDS011;61127;55.826;37.046;2023-02-28T14:56:53;5.72;;;2.38;;
70320;SDS011;61127;55.826;37.046;2023-02-28T14:59:25;3.92;;;2.10;;
70320;SDS011;61127;55.826;37.046;2023-02-28T15:01:51;4.72;;;1.98;;
70320;SDS011;61127;55.826;37.046;2023-02-28T15:04:25;4.43;;;2.00;;
70320;SDS011;61127;55.826;37.046;2023-02-28T15:07:08;4.82;;;2.47;;
70320;SDS011;61127;55.826;37.046;2023-02-28T15:09:33;5.55;;;2.25;;
70320;SDS011;61127;55.826;37.046;2023-02-28T15:11:59;3.97;;;2.10;;
70320;SDS011;61127;55.826;37.046;2023-02-28T15:14:25;4.03;;;1.77;;
70320;SDS011;61127;55.826;37.046;2023-02-28T15:16:57;3.30;;;1.83;;
70320;SDS011;61127;55.826;37.046;2023-02-28T15:19:34;5.75;;;1.83;;
70320;SDS011;61127;55.826;37.046;2023-02-28T15:22:06;4.47;;;1.73;;
70320;SDS011;61127;55.826;37.046;2023-02-28T15:24:38;4.77;;;1.70;;
70320;SDS011;61127;55.826;37.046;2023-02-28T15:27:09;3.72;;;1.55;;
70320;SDS011;61127;55.826;37.046;2023-02-28T15:29:42;3.92;;;1.70;;
70320;SDS011;61127;55.826;37.046;2023-02-28T15:32:25;4.75;;;2.10;;
70320;SDS011;61127;55.826;37.046;2023-02-28T15:34:52;3.63;;;1.88;;
70320;SDS011;61127;55.826;37.046;2023-02-28T15:40:14;4.20;;;1.63;;
70320;SDS011;61127;55.826;37.046;2023-02-28T15:42:42;4.18;;;1.70;;
70320;SDS011;61127;55.826;37.046;2023-02-28T15:45:28;5.30;;;1.55;;
70320;SDS011;61127;55.826;37.046;2023-02-28T15:47:53;3.97;;;2.03;;
70320;SDS011;61127;55.826;37.046;2023-02-28T15:50:19;4.50;;;2.00;;
70320;SDS011;61127;55.826;37.046;2023-02-28T15:52:45;3.87;;;1.80;;
70320;SDS011;61127;55.826;37.046;2023-02-28T15:57:39;3.72;;;1.50;;
70320;SDS011;61127;55.826;37.046;2023-02-28T16:00:06;4.22;;;2.00;;
70320;SDS011;61127;55.826;37.046;2023-02-28T16:02:37;5.47;;;2.03;;
70320;SDS011;61127;55.826;37.046;2023-02-28T16:07:33;10.20;;;3.33;;
70320;SDS011;61127;55.826;37.046;2023-02-28T16:10:00;3.65;;;1.70;;
70320;SDS011;61127;55.826;37.046;2023-02-28T16:12:27;4.20;;;1.90;;
70320;SDS011;61127;55.826;37.046;2023-02-28T16:14:55;3.33;;;1.63;;
70320;SDS011;61127;55.826;37.046;2023-02-28T16:17:23;4.22;;;1.60;;
70320;SDS011;61127;55.826;37.046;2023-02-28T16:19:49;4.45;;;1.63;;
70320;SDS011;61127;55.826;37.046;2023-02-28T16:22:15;4.53;;;1.98;;
70320;SDS011;61127;55.826;37.046;2023-02-28T16:24:41;3.30;;;1.87;;
70320;SDS011;61127;55.826;37.046;2023-02-28T16:27:07;3.63;;;1.55;;
70320;SDS011;61127;55.826;37.046;2023-02-28T16:29:39;4.45;;;1.65;;
70320;SDS011;61127;55.826;37.046;2023-02-28T16:32:05;3.90;;;1.53;;
70320;SDS011;61127;55.826;37.046;2023-02-28T16:34:45;2.85;;;1.33;;
70320;SDS011;61127;55.826;37.046;2023-02-28T16:37:12;3.78;;;1.52;;
70320;SDS011;61127;55.826;37.046;2023-02-28T16:39:37;3.83;;;1.73;;
70320;SDS011;61127;55.826;37.046;2023-02-28T16:42:03;4.93;;;1.50;;
70320;SDS011;61127;55.826;37.046;2023-02-28T16:44:30;2.83;;;1.37;;
70320;SDS011;61127;55.826;37.046;2023-02-28T16:46:56;3.13;;;1.50;;
70320;SDS011;61127;55.826;37.046;2023-02-28T16:49:22;3.07;;;1.40;;
70320;SDS011;61127;55.826;37.046;2023-02-28T16:51:48;3.72;;;1.70;;
70320;SDS011;61127;55.826;37.046;2023-02-28T16:54:13;2.30;;;1.33;;
70320;SDS011;61127;55.826;37.046;2023-02-28T16:56:42;4.20;;;2.05;;
70320;SDS011;61127;55.826;37.046;2023-02-28T16:59:09;4.43;;;2.03;;
70320;SDS011;61127;55.826;37.046;2023-02-28T17:01:35;2.93;;;1.30;;
70320;SDS011;61127;55.826;37.046;2023-02-28T17:04:01;5.82;;;2.20;;
70320;SDS011;61127;55.826;37.046;2023-02-28T17:06:29;3.20;;;1.60;;
70320;SDS011;61127;55.826;37.046;2023-02-28T17:08:55;4.50;;;1.58;;
70320;SDS011;61127;55.826;37.046;2023-02-28T17:11:21;3.63;;;1.70;;
70320;SDS011;61127;55.826;37.046;2023-02-28T17:13:47;6.30;;;1.63;;
70320;SDS011;61127;55.826;37.046;2023-02-28T17:18:42;3.92;;;1.70;;
70320;SDS011;61127;55.826;37.046;2023-02-28T17:21:12;4.47;;;1.73;;
70320;SDS011;61127;55.826;37.046;2023-02-28T17:23:38;2.40;;;1.30;;
70320;SDS011;61127;55.826;37.046;2023-02-28T17:26:05;4.13;;;1.40;;
70320;SDS011;61127;55.826;37.046;2023-02-28T17:28:32;2.85;;;1.42;;
70320;SDS011;61127;55.826;37.046;2023-02-28T17:30:57;4.22;;;1.50;;
70320;SDS011;61127;55.826;37.046;2023-02-28T17:33:23;3.87;;;1.27;;
70320;SDS011;61127;55.826;37.046;2023-02-28T17:35:49;2.58;;;1.23;;
70320;SDS011;61127;55.826;37.046;2023-02-28T17:38:16;3.73;;;1.40;;
70320;SDS011;61127;55.826;37.046;2023-02-28T17:40:42;3.10;;;1.02;;